sensor_id;sensor_type;location;lat;lon;timestamp;temperature;humidity
33741;DHT22;20065;48.380;10.892;2023-12-28T00:02:28;7.00;99.90
33741;DHT22;20065;48.380;10.892;2023-12-28T00:05:14;6.80;99.90
33741;DHT22;20065;48.380;10.892;2023-12-28T00:08:03;7.00;99.90
33741;DHT22;20065;48.380;10.892;2023-12-28T00:10:51;6.20;99.90
33741;DHT22;20065;48.380;10.892;2023-12-28T00:13:37;7.00;99.90
33741;DHT22;20065;48.380;10.892;2023-12-28T00:16:24;7.20;99.90
33741;DHT22;20065;48.380;10.892;2023-12-28T00:19:10;7.10;99.90
33741;DHT22;20065;48.380;10.892;2023-12-28T00:22:16;7.20;99.90
33741;DHT22;20065;48.380;10.892;2023-12-28T00:25:04;7.40;99.90
33741;DHT22;20065;48.380;10.892;2023-12-28T00:27:51;7.50;99.90
33741;DHT22;20065;48.380;10.892;2023-12-28T00:30:37;7.60;99.90
33741;DHT22;20065;48.380;10.892;2023-12-28T00:33:23;7.80;99.90
33741;DHT22;20065;48.380;10.892;2023-12-28T00:40:33;7.80;99.90
33741;DHT22;20065;48.380;10.892;2023-12-28T00:47:29;7.90;99.90
33741;DHT22;20065;48.380;10.892;2023-12-28T00:50:18;7.90;99.90
33741;DHT22;20065;48.380;10.892;2023-12-28T00:53:05;7.90;99.90
33741;DHT22;20065;48.380;10.892;2023-12-28T00:55:51;7.90;99.90
33741;DHT22;20065;48.380;10.892;2023-12-28T00:58:55;8.00;99.90
33741;DHT22;20065;48.380;10.892;2023-12-28T01:01:42;7.90;99.90
33741;DHT22;20065;48.380;10.892;2023-12-28T01:04:29;7.90;99.90
33741;DHT22;20065;48.380;10.892;2023-12-28T01:07:22;7.90;99.90
33741;DHT22;20065;48.380;10.892;2023-12-28T01:10:10;7.90;99.90
33741;DHT22;20065;48.380;10.892;2023-12-28T01:13:00;7.90;99.90
33741;DHT22;20065;48.380;10.892;2023-12-28T01:15:46;7.90;99.90
33741;DHT22;20065;48.380;10.892;2023-12-28T01:18:32;7.90;99.90
33741;DHT22;20065;48.380;10.892;2023-12-28T01:21:25;8.00;99.90
33741;DHT22;20065;48.380;10.892;2023-12-28T01:24:12;7.90;99.90
33741;DHT22;20065;48.380;10.892;2023-12-28T01:26:58;7.80;99.90
33741;DHT22;20065;48.380;10.892;2023-12-28T01:29:44;8.10;99.90
33741;DHT22;20065;48.380;10.892;2023-12-28T01:32:33;8.10;99.90
33741;DHT22;20065;48.380;10.892;2023-12-28T01:35:20;8.10;99.90
33741;DHT22;20065;48.380;10.892;2023-12-28T01:38:07;8.00;99.90
33741;DHT22;20065;48.380;10.892;2023-12-28T01:40:53;8.10;99.90
33741;DHT22;20065;48.380;10.892;2023-12-28T01:43:40;8.10;99.90
33741;DHT22;20065;48.380;10.892;2023-12-28T01:46:27;8.20;99.90
33741;DHT22;20065;48.380;10.892;2023-12-28T01:49:14;8.20;99.90
33741;DHT22;20065;48.380;10.892;2023-12-28T01:52:05;8.30;99.90
33741;DHT22;20065;48.380;10.892;2023-12-28T01:54:55;8.20;99.90
33741;DHT22;20065;48.380;10.892;2023-12-28T01:57:45;8.20;99.90
33741;DHT22;20065;48.380;10.892;2023-12-28T02:00:35;8.70;99.90
33741;DHT22;20065;48.380;10.892;2023-12-28T02:03:24;8.20;99.90
33741;DHT22;20065;48.380;10.892;2023-12-28T02:06:14;8.40;99.90
33741;DHT22;20065;48.380;10.892;2023-12-28T02:09:08;8.50;99.90
33741;DHT22;20065;48.380;10.892;2023-12-28T02:12:07;8.80;99.90
33741;DHT22;20065;48.380;10.892;2023-12-28T02:15:10;8.30;99.90
33741;DHT22;20065;48.380;10.892;2023-12-28T02:18:15;8.70;99.90
33741;DHT22;20065;48.380;10.892;2023-12-28T02:21:09;8.20;99.90
33741;DHT22;20065;48.380;10.892;2023-12-28T02:24:00;8.30;99.90
33741;DHT22;20065;48.380;10.892;2023-12-28T02:26:47;8.40;99.90
33741;DHT22;20065;48.380;10.892;2023-12-28T02:29:35;8.30;99.90
33741;DHT22;20065;48.380;10.892;2023-12-28T02:32:39;8.40;99.90
33741;DHT22;20065;48.380;10.892;2023-12-28T02:35:36;8.40;99.90
33741;DHT22;20065;48.380;10.892;2023-12-28T02:38:24;8.30;99.90
33741;DHT22;20065;48.380;10.892;2023-12-28T02:41:13;8.60;99.90
33741;DHT22;20065;48.380;10.892;2023-12-28T02:44:00;8.40;99.90
33741;DHT22;20065;48.380;10.892;2023-12-28T02:46:47;8.40;99.90
33741;DHT22;20065;48.380;10.892;2023-12-28T02:49:36;8.40;99.90
33741;DHT22;20065;48.380;10.892;2023-12-28T02:52:23;8.40;99.90
33741;DHT22;20065;48.380;10.892;2023-12-28T02:55:36;8.40;99.90
33741;DHT22;20065;48.380;10.892;2023-12-28T02:58:26;8.40;99.90
33741;DHT22;20065;48.380;10.892;2023-12-28T03:01:13;8.50;99.90
33741;DHT22;20065;48.380;10.892;2023-12-28T03:04:00;8.40;99.90
33741;DHT22;20065;48.380;10.892;2023-12-28T03:06:47;8.30;99.90
33741;DHT22;20065;48.380;10.892;2023-12-28T03:09:34;8.80;99.90
33741;DHT22;20065;48.380;10.892;2023-12-28T03:12:21;8.40;99.90
33741;DHT22;20065;48.380;10.892;2023-12-28T03:15:13;8.30;99.90
33741;DHT22;20065;48.380;10.892;2023-12-28T03:18:00;8.40;99.90
33741;DHT22;20065;48.380;10.892;2023-12-28T03:20:47;8.40;99.90
33741;DHT22;20065;48.380;10.892;2023-12-28T03:23:33;8.20;99.90
33741;DHT22;20065;48.380;10.892;2023-12-28T03:26:20;8.20;99.90
33741;DHT22;20065;48.380;10.892;2023-12-28T03:29:08;8.20;99.90
33741;DHT22;20065;48.380;10.892;2023-12-28T03:31:55;8.30;99.90
33741;DHT22;20065;48.380;10.892;2023-12-28T03:34:44;8.30;99.90
33741;DHT22;20065;48.380;10.892;2023-12-28T03:37:34;8.50;99.90
33741;DHT22;20065;48.380;10.892;2023-12-28T03:40:22;8.60;99.90
33741;DHT22;20065;48.380;10.892;2023-12-28T03:43:11;8.70;99.90
33741;DHT22;20065;48.380;10.892;2023-12-28T03:46:02;8.70;99.80
33741;DHT22;20065;48.380;10.892;2023-12-28T03:48:52;8.80;99.90
33741;DHT22;20065;48.380;10.892;2023-12-28T03:51:39;8.60;99.30
33741;DHT22;20065;48.380;10.892;2023-12-28T03:54:29;8.50;99.30
33741;DHT22;20065;48.380;10.892;2023-12-28T03:57:25;8.60;99.80
33741;DHT22;20065;48.380;10.892;2023-12-28T04:00:16;8.70;99.70
33741;DHT22;20065;48.380;10.892;2023-12-28T04:03:03;8.10;99.30
33741;DHT22;20065;48.380;10.892;2023-12-28T04:05:53;8.50;99.50
33741;DHT22;20065;48.380;10.892;2023-12-28T04:08:43;8.60;99.80
33741;DHT22;20065;48.380;10.892;2023-12-28T04:11:31;8.80;99.70
33741;DHT22;20065;48.380;10.892;2023-12-28T04:14:19;8.80;99.50
33741;DHT22;20065;48.380;10.892;2023-12-28T04:17:06;8.90;99.70
33741;DHT22;20065;48.380;10.892;2023-12-28T04:19:53;8.80;99.40
33741;DHT22;20065;48.380;10.892;2023-12-28T04:22:44;8.80;99.90
33741;DHT22;20065;48.380;10.892;2023-12-28T04:25:31;9.00;99.20
33741;DHT22;20065;48.380;10.892;2023-12-28T04:28:21;8.90;98.70
33741;DHT22;20065;48.380;10.892;2023-12-28T04:31:11;9.00;98.70
33741;DHT22;20065;48.380;10.892;2023-12-28T04:34:00;9.00;99.50
33741;DHT22;20065;48.380;10.892;2023-12-28T04:36:51;8.90;99.60
33741;DHT22;20065;48.380;10.892;2023-12-28T04:39:39;9.00;99.90
33741;DHT22;20065;48.380;10.892;2023-12-28T04:42:29;8.90;99.90
33741;DHT22;20065;48.380;10.892;2023-12-28T04:45:16;8.90;99.40
33741;DHT22;20065;48.380;10.892;2023-12-28T04:48:03;8.80;99.00
33741;DHT22;20065;48.380;10.892;2023-12-28T04:50:50;8.90;98.80
33741;DHT22;20065;48.380;10.892;2023-12-28T04:53:39;9.00;99.00
33741;DHT22;20065;48.380;10.892;2023-12-28T04:56:26;8.90;99.50
33741;DHT22;20065;48.380;10.892;2023-12-28T04:59:18;9.30;98.60
33741;DHT22;20065;48.380;10.892;2023-12-28T05:02:05;9.10;98.20
33741;DHT22;20065;48.380;10.892;2023-12-28T05:04:52;9.20;98.00
33741;DHT22;20065;48.380;10.892;2023-12-28T05:07:39;8.90;98.90
33741;DHT22;20065;48.380;10.892;2023-12-28T05:10:29;9.20;99.30
33741;DHT22;20065;48.380;10.892;2023-12-28T05:13:19;9.40;98.40
33741;DHT22;20065;48.380;10.892;2023-12-28T05:16:06;9.60;98.80
33741;DHT22;20065;48.380;10.892;2023-12-28T05:18:59;9.30;98.40
33741;DHT22;20065;48.380;10.892;2023-12-28T05:21:45;9.30;98.90
33741;DHT22;20065;48.380;10.892;2023-12-28T05:24:33;9.20;98.60
33741;DHT22;20065;48.380;10.892;2023-12-28T05:27:25;9.20;98.60
33741;DHT22;20065;48.380;10.892;2023-12-28T05:30:12;9.30;98.70
33741;DHT22;20065;48.380;10.892;2023-12-28T05:32:59;9.20;99.90
33741;DHT22;20065;48.380;10.892;2023-12-28T05:35:46;9.40;98.50
33741;DHT22;20065;48.380;10.892;2023-12-28T05:38:33;9.20;98.60
33741;DHT22;20065;48.380;10.892;2023-12-28T05:41:20;9.20;98.70
33741;DHT22;20065;48.380;10.892;2023-12-28T05:44:09;9.20;98.30
33741;DHT22;20065;48.380;10.892;2023-12-28T05:46:58;9.10;98.30
33741;DHT22;20065;48.380;10.892;2023-12-28T05:49:45;9.20;98.40
33741;DHT22;20065;48.380;10.892;2023-12-28T05:52:37;9.10;98.80
33741;DHT22;20065;48.380;10.892;2023-12-28T05:55:24;9.00;98.50
33741;DHT22;20065;48.380;10.892;2023-12-28T05:58:11;8.90;98.10
33741;DHT22;20065;48.380;10.892;2023-12-28T06:00:58;8.90;98.60
33741;DHT22;20065;48.380;10.892;2023-12-28T06:03:45;8.80;98.70
33741;DHT22;20065;48.380;10.892;2023-12-28T06:06:35;8.80;98.40
33741;DHT22;20065;48.380;10.892;2023-12-28T06:09:22;8.80;98.30
33741;DHT22;20065;48.380;10.892;2023-12-28T06:12:09;8.70;98.10
33741;DHT22;20065;48.380;10.892;2023-12-28T06:14:57;8.70;98.30
33741;DHT22;20065;48.380;10.892;2023-12-28T06:17:44;8.60;98.30
33741;DHT22;20065;48.380;10.892;2023-12-28T06:20:31;8.80;98.50
33741;DHT22;20065;48.380;10.892;2023-12-28T06:23:19;8.80;98.00
33741;DHT22;20065;48.380;10.892;2023-12-28T06:26:06;8.80;98.10
33741;DHT22;20065;48.380;10.892;2023-12-28T06:28:53;8.80;97.90
33741;DHT22;20065;48.380;10.892;2023-12-28T06:31:40;8.80;98.30
33741;DHT22;20065;48.380;10.892;2023-12-28T06:34:27;8.70;98.20
33741;DHT22;20065;48.380;10.892;2023-12-28T06:37:14;8.70;98.30
33741;DHT22;20065;48.380;10.892;2023-12-28T06:40:01;8.70;98.20
33741;DHT22;20065;48.380;10.892;2023-12-28T06:42:48;8.70;98.50
33741;DHT22;20065;48.380;10.892;2023-12-28T06:45:36;8.70;98.50
33741;DHT22;20065;48.380;10.892;2023-12-28T06:48:34;8.80;98.50
33741;DHT22;20065;48.380;10.892;2023-12-28T06:51:24;8.70;98.60
33741;DHT22;20065;48.380;10.892;2023-12-28T06:54:14;8.80;98.40
33741;DHT22;20065;48.380;10.892;2023-12-28T06:57:05;9.10;98.50
33741;DHT22;20065;48.380;10.892;2023-12-28T06:59:52;8.60;98.40
33741;DHT22;20065;48.380;10.892;2023-12-28T07:02:39;8.70;98.50
33741;DHT22;20065;48.380;10.892;2023-12-28T07:05:26;8.60;98.40
33741;DHT22;20065;48.380;10.892;2023-12-28T07:08:15;8.70;98.40
33741;DHT22;20065;48.380;10.892;2023-12-28T07:11:03;8.70;98.10
33741;DHT22;20065;48.380;10.892;2023-12-28T07:13:50;8.60;98.30
33741;DHT22;20065;48.380;10.892;2023-12-28T07:16:40;8.70;98.30
33741;DHT22;20065;48.380;10.892;2023-12-28T07:19:27;8.60;98.50
33741;DHT22;20065;48.380;10.892;2023-12-28T07:22:17;8.70;98.20
33741;DHT22;20065;48.380;10.892;2023-12-28T07:25:08;8.70;98.00
33741;DHT22;20065;48.380;10.892;2023-12-28T07:27:57;8.70;98.50
33741;DHT22;20065;48.380;10.892;2023-12-28T07:30:47;8.70;98.60
33741;DHT22;20065;48.380;10.892;2023-12-28T07:33:37;8.70;99.00
33741;DHT22;20065;48.380;10.892;2023-12-28T07:36:30;8.80;98.80
33741;DHT22;20065;48.380;10.892;2023-12-28T07:39:24;8.80;98.70
33741;DHT22;20065;48.380;10.892;2023-12-28T07:42:12;8.90;98.70
33741;DHT22;20065;48.380;10.892;2023-12-28T07:44:59;8.80;99.60
33741;DHT22;20065;48.380;10.892;2023-12-28T07:47:46;8.80;99.70
33741;DHT22;20065;48.380;10.892;2023-12-28T07:50:39;8.80;99.90
33741;DHT22;20065;48.380;10.892;2023-12-28T07:53:31;8.80;99.50
33741;DHT22;20065;48.380;10.892;2023-12-28T07:56:23;8.80;99.10
33741;DHT22;20065;48.380;10.892;2023-12-28T07:59:10;8.90;98.90
33741;DHT22;20065;48.380;10.892;2023-12-28T08:01:58;8.90;99.10
33741;DHT22;20065;48.380;10.892;2023-12-28T08:05:12;8.90;98.70
33741;DHT22;20065;48.380;10.892;2023-12-28T08:08:02;9.00;98.20
33741;DHT22;20065;48.380;10.892;2023-12-28T08:10:48;9.00;98.20
33741;DHT22;20065;48.380;10.892;2023-12-28T08:13:35;9.10;98.90
33741;DHT22;20065;48.380;10.892;2023-12-28T08:16:21;9.10;98.70
33741;DHT22;20065;48.380;10.892;2023-12-28T08:19:07;9.30;99.00
33741;DHT22;20065;48.380;10.892;2023-12-28T08:21:53;9.40;98.70
33741;DHT22;20065;48.380;10.892;2023-12-28T08:24:39;9.40;98.30
33741;DHT22;20065;48.380;10.892;2023-12-28T08:27:26;9.50;97.90
33741;DHT22;20065;48.380;10.892;2023-12-28T08:30:12;9.80;98.30
33741;DHT22;20065;48.380;10.892;2023-12-28T08:33:01;9.30;98.30
33741;DHT22;20065;48.380;10.892;2023-12-28T08:35:47;9.80;98.30
33741;DHT22;20065;48.380;10.892;2023-12-28T08:38:34;9.80;98.00
33741;DHT22;20065;48.380;10.892;2023-12-28T08:41:21;9.90;97.40
33741;DHT22;20065;48.380;10.892;2023-12-28T08:44:07;9.90;97.60
33741;DHT22;20065;48.380;10.892;2023-12-28T08:46:53;10.00;97.30
33741;DHT22;20065;48.380;10.892;2023-12-28T08:49:39;9.90;97.40
33741;DHT22;20065;48.380;10.892;2023-12-28T08:52:27;10.10;97.20
33741;DHT22;20065;48.380;10.892;2023-12-28T08:55:14;10.30;97.00
33741;DHT22;20065;48.380;10.892;2023-12-28T08:58:00;10.40;97.30
33741;DHT22;20065;48.380;10.892;2023-12-28T09:00:46;10.40;97.30
33741;DHT22;20065;48.380;10.892;2023-12-28T09:03:34;10.50;96.60
33741;DHT22;20065;48.380;10.892;2023-12-28T09:06:22;10.60;96.50
33741;DHT22;20065;48.380;10.892;2023-12-28T09:09:08;10.60;96.00
33741;DHT22;20065;48.380;10.892;2023-12-28T09:11:55;10.70;96.60
33741;DHT22;20065;48.380;10.892;2023-12-28T09:14:41;10.70;96.80
33741;DHT22;20065;48.380;10.892;2023-12-28T09:17:28;10.80;96.80
33741;DHT22;20065;48.380;10.892;2023-12-28T09:20:14;11.30;96.00
33741;DHT22;20065;48.380;10.892;2023-12-28T09:23:00;11.40;95.40
33741;DHT22;20065;48.380;10.892;2023-12-28T09:25:46;11.50;95.90
33741;DHT22;20065;48.380;10.892;2023-12-28T09:28:33;11.20;95.70
33741;DHT22;20065;48.380;10.892;2023-12-28T09:31:20;11.10;95.30
33741;DHT22;20065;48.380;10.892;2023-12-28T09:34:06;11.10;96.00
33741;DHT22;20065;48.380;10.892;2023-12-28T09:36:52;11.00;96.60
33741;DHT22;20065;48.380;10.892;2023-12-28T09:39:38;11.00;96.50
33741;DHT22;20065;48.380;10.892;2023-12-28T09:42:33;11.00;96.90
33741;DHT22;20065;48.380;10.892;2023-12-28T09:45:20;11.00;96.30
33741;DHT22;20065;48.380;10.892;2023-12-28T09:48:07;10.80;96.70
33741;DHT22;20065;48.380;10.892;2023-12-28T09:50:54;10.90;97.10
33741;DHT22;20065;48.380;10.892;2023-12-28T09:53:43;11.00;96.40
33741;DHT22;20065;48.380;10.892;2023-12-28T09:56:32;11.30;96.60
33741;DHT22;20065;48.380;10.892;2023-12-28T09:59:19;11.10;95.80
33741;DHT22;20065;48.380;10.892;2023-12-28T10:02:06;11.10;96.00
33741;DHT22;20065;48.380;10.892;2023-12-28T10:04:56;11.20;96.00
33741;DHT22;20065;48.380;10.892;2023-12-28T10:07:44;11.20;96.10
33741;DHT22;20065;48.380;10.892;2023-12-28T10:10:30;11.20;96.00
33741;DHT22;20065;48.380;10.892;2023-12-28T10:13:17;11.20;96.40
33741;DHT22;20065;48.380;10.892;2023-12-28T10:16:07;11.20;96.50
33741;DHT22;20065;48.380;10.892;2023-12-28T10:18:56;11.20;96.60
33741;DHT22;20065;48.380;10.892;2023-12-28T10:21:43;11.20;95.80
33741;DHT22;20065;48.380;10.892;2023-12-28T10:24:30;11.20;96.50
33741;DHT22;20065;48.380;10.892;2023-12-28T10:27:16;10.40;96.40
33741;DHT22;20065;48.380;10.892;2023-12-28T10:30:02;11.20;96.10
33741;DHT22;20065;48.380;10.892;2023-12-28T10:32:49;11.20;96.10
33741;DHT22;20065;48.380;10.892;2023-12-28T10:35:36;11.20;96.40
33741;DHT22;20065;48.380;10.892;2023-12-28T10:38:22;11.20;96.10
33741;DHT22;20065;48.380;10.892;2023-12-28T10:41:12;11.20;95.70
33741;DHT22;20065;48.380;10.892;2023-12-28T10:44:05;11.30;95.50
33741;DHT22;20065;48.380;10.892;2023-12-28T10:46:57;11.30;95.90
33741;DHT22;20065;48.380;10.892;2023-12-28T10:49:44;11.40;96.10
33741;DHT22;20065;48.380;10.892;2023-12-28T10:52:33;11.30;95.80
33741;DHT22;20065;48.380;10.892;2023-12-28T10:55:50;11.30;96.10
33741;DHT22;20065;48.380;10.892;2023-12-28T10:58:49;11.50;96.00
33741;DHT22;20065;48.380;10.892;2023-12-28T11:01:39;11.40;95.80
33741;DHT22;20065;48.380;10.892;2023-12-28T11:04:41;11.40;95.50
33741;DHT22;20065;48.380;10.892;2023-12-28T11:07:29;11.40;95.50
33741;DHT22;20065;48.380;10.892;2023-12-28T11:10:20;11.40;95.80
33741;DHT22;20065;48.380;10.892;2023-12-28T11:13:09;11.40;96.00
33741;DHT22;20065;48.380;10.892;2023-12-28T11:15:57;11.40;96.20
33741;DHT22;20065;48.380;10.892;2023-12-28T11:18:44;11.40;96.80
33741;DHT22;20065;48.380;10.892;2023-12-28T11:21:31;11.40;96.80
33741;DHT22;20065;48.380;10.892;2023-12-28T11:24:19;11.50;97.60
33741;DHT22;20065;48.380;10.892;2023-12-28T11:27:06;11.40;96.70
33741;DHT22;20065;48.380;10.892;2023-12-28T11:29:52;11.50;96.90
33741;DHT22;20065;48.380;10.892;2023-12-28T11:32:43;11.40;96.60
33741;DHT22;20065;48.380;10.892;2023-12-28T11:35:39;11.40;96.50
33741;DHT22;20065;48.380;10.892;2023-12-28T11:38:26;11.50;96.80
33741;DHT22;20065;48.380;10.892;2023-12-28T11:41:16;11.40;96.00
33741;DHT22;20065;48.380;10.892;2023-12-28T11:44:04;11.30;96.20
33741;DHT22;20065;48.380;10.892;2023-12-28T11:46:51;11.40;95.70
33741;DHT22;20065;48.380;10.892;2023-12-28T11:49:37;11.30;95.50
33741;DHT22;20065;48.380;10.892;2023-12-28T11:55:21;12.00;96.10
33741;DHT22;20065;48.380;10.892;2023-12-28T11:58:07;11.40;96.20
33741;DHT22;20065;48.380;10.892;2023-12-28T12:00:54;11.30;96.00
33741;DHT22;20065;48.380;10.892;2023-12-28T12:03:40;11.30;96.20
33741;DHT22;20065;48.380;10.892;2023-12-28T12:06:27;11.30;95.80
33741;DHT22;20065;48.380;10.892;2023-12-28T12:09:14;11.30;95.90
33741;DHT22;20065;48.380;10.892;2023-12-28T12:12:01;11.20;95.60
33741;DHT22;20065;48.380;10.892;2023-12-28T12:14:48;11.30;96.10
33741;DHT22;20065;48.380;10.892;2023-12-28T12:17:35;11.20;96.20
33741;DHT22;20065;48.380;10.892;2023-12-28T12:39:50;11.20;97.00
33741;DHT22;20065;48.380;10.892;2023-12-28T12:42:37;11.10;96.90
33741;DHT22;20065;48.380;10.892;2023-12-28T12:45:24;11.20;97.20
33741;DHT22;20065;48.380;10.892;2023-12-28T12:48:11;11.20;98.50
33741;DHT22;20065;48.380;10.892;2023-12-28T12:50:57;11.20;98.00
33741;DHT22;20065;48.380;10.892;2023-12-28T12:53:44;11.30;97.60
33741;DHT22;20065;48.380;10.892;2023-12-28T12:56:30;11.30;98.30
33741;DHT22;20065;48.380;10.892;2023-12-28T12:59:20;11.30;97.90
33741;DHT22;20065;48.380;10.892;2023-12-28T13:02:13;11.50;98.00
33741;DHT22;20065;48.380;10.892;2023-12-28T13:04:59;11.70;97.70
33741;DHT22;20065;48.380;10.892;2023-12-28T13:07:46;11.30;98.30
33741;DHT22;20065;48.380;10.892;2023-12-28T13:10:32;11.30;98.50
33741;DHT22;20065;48.380;10.892;2023-12-28T13:13:18;11.30;98.40
33741;DHT22;20065;48.380;10.892;2023-12-28T13:16:05;11.30;98.30
33741;DHT22;20065;48.380;10.892;2023-12-28T13:18:52;10.30;97.90
33741;DHT22;20065;48.380;10.892;2023-12-28T13:21:38;11.30;98.70
33741;DHT22;20065;48.380;10.892;2023-12-28T13:24:24;12.10;99.20
33741;DHT22;20065;48.380;10.892;2023-12-28T13:27:10;12.10;99.40
33741;DHT22;20065;48.380;10.892;2023-12-28T13:29:58;11.30;99.00
33741;DHT22;20065;48.380;10.892;2023-12-28T13:32:44;11.40;99.00
33741;DHT22;20065;48.380;10.892;2023-12-28T13:35:31;11.30;99.20
33741;DHT22;20065;48.380;10.892;2023-12-28T13:38:21;11.40;99.10
33741;DHT22;20065;48.380;10.892;2023-12-28T13:41:09;11.20;99.30
33741;DHT22;20065;48.380;10.892;2023-12-28T13:43:56;10.80;99.90
33741;DHT22;20065;48.380;10.892;2023-12-28T13:47:07;11.40;99.70
33741;DHT22;20065;48.380;10.892;2023-12-28T13:49:53;11.40;99.90
33741;DHT22;20065;48.380;10.892;2023-12-28T13:52:40;11.30;99.80
33741;DHT22;20065;48.380;10.892;2023-12-28T13:55:27;11.30;99.70
33741;DHT22;20065;48.380;10.892;2023-12-28T13:58:14;10.80;99.90
33741;DHT22;20065;48.380;10.892;2023-12-28T14:01:01;11.20;99.80
33741;DHT22;20065;48.380;10.892;2023-12-28T14:03:49;11.20;99.90
33741;DHT22;20065;48.380;10.892;2023-12-28T14:06:38;11.40;99.90
33741;DHT22;20065;48.380;10.892;2023-12-28T14:09:25;11.40;99.90
33741;DHT22;20065;48.380;10.892;2023-12-28T14:12:15;11.40;99.90
33741;DHT22;20065;48.380;10.892;2023-12-28T14:15:06;11.30;99.90
33741;DHT22;20065;48.380;10.892;2023-12-28T14:18:06;11.20;99.50
33741;DHT22;20065;48.380;10.892;2023-12-28T14:20:59;11.20;99.90
33741;DHT22;20065;48.380;10.892;2023-12-28T14:23:47;11.20;99.70
33741;DHT22;20065;48.380;10.892;2023-12-28T14:26:34;11.20;99.60
33741;DHT22;20065;48.380;10.892;2023-12-28T14:29:26;11.40;99.10
33741;DHT22;20065;48.380;10.892;2023-12-28T14:32:13;11.20;99.60
33741;DHT22;20065;48.380;10.892;2023-12-28T14:45:45;11.30;99.30
33741;DHT22;20065;48.380;10.892;2023-12-28T14:48:47;11.10;99.90
33741;DHT22;20065;48.380;10.892;2023-12-28T14:51:33;11.70;99.90
33741;DHT22;20065;48.380;10.892;2023-12-28T14:54:20;11.00;99.90
33741;DHT22;20065;48.380;10.892;2023-12-28T14:57:08;11.00;99.90
33741;DHT22;20065;48.380;10.892;2023-12-28T14:59:56;11.00;99.90
33741;DHT22;20065;48.380;10.892;2023-12-28T15:02:45;10.80;99.90
33741;DHT22;20065;48.380;10.892;2023-12-28T15:05:51;11.00;99.90
33741;DHT22;20065;48.380;10.892;2023-12-28T15:08:38;11.00;99.50
33741;DHT22;20065;48.380;10.892;2023-12-28T15:11:29;11.00;99.90
33741;DHT22;20065;48.380;10.892;2023-12-28T15:14:16;11.00;99.90
33741;DHT22;20065;48.380;10.892;2023-12-28T15:17:05;11.00;99.40
33741;DHT22;20065;48.380;10.892;2023-12-28T15:20:07;12.10;99.90
33741;DHT22;20065;48.380;10.892;2023-12-28T15:22:54;11.10;99.90
33741;DHT22;20065;48.380;10.892;2023-12-28T15:25:42;11.00;99.90
33741;DHT22;20065;48.380;10.892;2023-12-28T15:28:31;10.90;99.90
33741;DHT22;20065;48.380;10.892;2023-12-28T15:31:18;11.00;99.90
33741;DHT22;20065;48.380;10.892;2023-12-28T15:34:04;11.00;99.90
33741;DHT22;20065;48.380;10.892;2023-12-28T15:36:53;11.00;99.90
33741;DHT22;20065;48.380;10.892;2023-12-28T15:39:39;10.40;99.90
33741;DHT22;20065;48.380;10.892;2023-12-28T15:42:27;11.00;99.90
33741;DHT22;20065;48.380;10.892;2023-12-28T15:45:14;11.00;99.90
33741;DHT22;20065;48.380;10.892;2023-12-28T15:48:00;10.90;99.90
33741;DHT22;20065;48.380;10.892;2023-12-28T15:50:46;11.00;99.90
33741;DHT22;20065;48.380;10.892;2023-12-28T15:53:33;10.90;99.90
33741;DHT22;20065;48.380;10.892;2023-12-28T15:56:19;10.90;99.90
33741;DHT22;20065;48.380;10.892;2023-12-28T15:59:05;10.90;99.90
33741;DHT22;20065;48.380;10.892;2023-12-28T16:01:51;10.90;99.90
33741;DHT22;20065;48.380;10.892;2023-12-28T16:08:27;10.90;99.90
33741;DHT22;20065;48.380;10.892;2023-12-28T16:11:14;10.80;99.60
33741;DHT22;20065;48.380;10.892;2023-12-28T16:14:01;10.80;99.90
33741;DHT22;20065;48.380;10.892;2023-12-28T16:17:06;11.00;99.90
33741;DHT22;20065;48.380;10.892;2023-12-28T16:19:54;10.80;99.10
33741;DHT22;20065;48.380;10.892;2023-12-28T16:22:43;10.80;99.90
33741;DHT22;20065;48.380;10.892;2023-12-28T16:25:30;10.80;99.90
33741;DHT22;20065;48.380;10.892;2023-12-28T16:28:20;11.00;99.90
33741;DHT22;20065;48.380;10.892;2023-12-28T16:31:09;10.70;99.90
33741;DHT22;20065;48.380;10.892;2023-12-28T16:33:57;10.80;99.90
33741;DHT22;20065;48.380;10.892;2023-12-28T16:36:44;10.40;99.90
33741;DHT22;20065;48.380;10.892;2023-12-28T16:39:30;10.30;99.90
33741;DHT22;20065;48.380;10.892;2023-12-28T16:42:17;10.50;99.90
33741;DHT22;20065;48.380;10.892;2023-12-28T16:45:03;10.30;99.90
33741;DHT22;20065;48.380;10.892;2023-12-28T16:47:53;10.30;99.90
33741;DHT22;20065;48.380;10.892;2023-12-28T16:50:39;10.30;99.90
33741;DHT22;20065;48.380;10.892;2023-12-28T16:53:26;10.40;99.90
33741;DHT22;20065;48.380;10.892;2023-12-28T16:56:12;10.30;99.90
33741;DHT22;20065;48.380;10.892;2023-12-28T16:58:58;10.40;99.90
33741;DHT22;20065;48.380;10.892;2023-12-28T17:15:15;10.40;99.90
33741;DHT22;20065;48.380;10.892;2023-12-28T17:18:14;10.40;99.90
33741;DHT22;20065;48.380;10.892;2023-12-28T17:21:12;10.30;99.90
33741;DHT22;20065;48.380;10.892;2023-12-28T17:24:06;10.30;99.90
33741;DHT22;20065;48.380;10.892;2023-12-28T17:26:59;10.40;99.90
33741;DHT22;20065;48.380;10.892;2023-12-28T17:30:00;10.30;99.90
33741;DHT22;20065;48.380;10.892;2023-12-28T17:40:09;11.00;99.90
33741;DHT22;20065;48.380;10.892;2023-12-28T17:43:00;10.50;99.90
33741;DHT22;20065;48.380;10.892;2023-12-28T17:45:58;10.40;99.90
33741;DHT22;20065;48.380;10.892;2023-12-28T17:48:49;10.50;99.90
33741;DHT22;20065;48.380;10.892;2023-12-28T17:51:40;10.40;99.90
33741;DHT22;20065;48.380;10.892;2023-12-28T17:54:32;10.80;99.90
33741;DHT22;20065;48.380;10.892;2023-12-28T17:57:21;10.80;99.90
33741;DHT22;20065;48.380;10.892;2023-12-28T18:00:39;10.90;99.90
33741;DHT22;20065;48.380;10.892;2023-12-28T18:03:32;10.80;99.90
33741;DHT22;20065;48.380;10.892;2023-12-28T18:10:31;9.70;99.90
33741;DHT22;20065;48.380;10.892;2023-12-28T18:14:17;10.70;99.90
33741;DHT22;20065;48.380;10.892;2023-12-28T18:17:34;10.00;99.90
33741;DHT22;20065;48.380;10.892;2023-12-28T18:24:22;10.30;99.90
33741;DHT22;20065;48.380;10.892;2023-12-28T18:30:47;11.20;99.90
33741;DHT22;20065;48.380;10.892;2023-12-28T18:33:42;11.20;99.90
33741;DHT22;20065;48.380;10.892;2023-12-28T18:36:32;10.80;99.90
33741;DHT22;20065;48.380;10.892;2023-12-28T18:39:24;10.40;99.90
33741;DHT22;20065;48.380;10.892;2023-12-28T18:42:13;10.80;99.90
33741;DHT22;20065;48.380;10.892;2023-12-28T18:45:00;10.90;99.90
33741;DHT22;20065;48.380;10.892;2023-12-28T18:48:21;11.10;99.90
33741;DHT22;20065;48.380;10.892;2023-12-28T18:51:19;10.50;99.90
33741;DHT22;20065;48.380;10.892;2023-12-28T18:54:07;10.60;99.90
33741;DHT22;20065;48.380;10.892;2023-12-28T18:56:58;10.40;99.90
33741;DHT22;20065;48.380;10.892;2023-12-28T18:59:45;10.40;99.90